createdAt,value
2022-12-01T00:02:33.706Z,86
2022-12-01T00:07:35.324Z,86
2022-12-01T00:12:36.690Z,86
2022-12-01T00:17:38.301Z,86
2022-12-01T00:22:40.127Z,86
2022-12-01T00:27:41.616Z,86
2022-12-01T00:32:42.723Z,87
2022-12-01T00:37:43.908Z,87
2022-12-01T00:42:45.876Z,87
2022-12-01T00:47:46.915Z,88
2022-12-01T00:52:48.347Z,88
2022-12-01T00:57:49.580Z,88
2022-12-01T01:02:50.814Z,88
2022-12-01T01:07:52.850Z,88
2022-12-01T01:12:54.580Z,88
2022-12-01T01:17:55.927Z,87
2022-12-01T01:22:57.295Z,87
2022-12-01T01:27:59.159Z,87
2022-12-01T01:33:00.572Z,87
2022-12-01T01:38:02.285Z,87
2022-12-01T01:43:04.282Z,87
2022-12-01T01:48:06.022Z,87
2022-12-01T01:53:07.634Z,87
2022-12-01T01:58:09.406Z,87
2022-12-01T02:03:11.044Z,87
2022-12-01T02:08:12.963Z,87
2022-12-01T02:13:14.924Z,87
2022-12-01T02:18:16.974Z,87
2022-12-01T02:23:19.096Z,87
2022-12-01T02:28:21.058Z,86
2022-12-01T02:33:22.282Z,87
2022-12-01T02:38:24.400Z,87
2022-12-01T02:43:25.836Z,86
2022-12-01T02:48:27.416Z,87
2022-12-01T02:53:28.634Z,87
2022-12-01T02:58:30.457Z,87
2022-12-01T03:03:32.084Z,87
2022-12-01T03:08:33.659Z,87
2022-12-01T03:13:35.614Z,88
2022-12-01T03:18:37.537Z,88
2022-12-01T03:23:39.122Z,88
2022-12-01T03:28:40.818Z,88
2022-12-01T03:33:42.283Z,88
2022-12-01T03:38:44.369Z,89
2022-12-01T03:43:46.055Z,89
2022-12-01T03:48:47.547Z,89
2022-12-01T03:53:49.659Z,89
2022-12-01T03:58:51.671Z,89
2022-12-01T04:03:52.901Z,89
2022-12-01T04:08:54.459Z,88
2022-12-01T04:13:56.034Z,88
2022-12-01T04:18:57.975Z,88
2022-12-01T04:23:59.974Z,88
2022-12-01T04:29:02.154Z,88
2022-12-01T04:34:03.422Z,87
2022-12-01T04:39:04.808Z,87
2022-12-01T04:44:06.355Z,86
2022-12-01T04:49:07.633Z,86
2022-12-01T04:54:08.986Z,85
2022-12-01T04:59:10.733Z,86
2022-12-01T05:04:12.690Z,86
2022-12-01T05:09:17.333Z,87
2022-12-01T05:14:16.957Z,86
2022-12-01T05:19:18.728Z,86
2022-12-01T05:24:20.902Z,86
2022-12-01T05:29:22.441Z,86
2022-12-01T05:34:23.624Z,86
2022-12-01T05:39:25.614Z,87
2022-12-01T05:44:27.280Z,87
2022-12-01T05:49:29.130Z,87
2022-12-01T05:54:31.266Z,86
2022-12-01T05:59:33.223Z,86
2022-12-01T06:04:35.265Z,86
2022-12-01T06:09:36.613Z,86
2022-12-01T06:14:38.612Z,85
2022-12-01T06:19:40.460Z,85
2022-12-01T06:24:42.139Z,85
2022-12-01T06:29:43.796Z,85
2022-12-01T06:34:45.037Z,84
2022-12-01T06:39:47.122Z,84
2022-12-01T06:44:48.729Z,84
2022-12-01T06:49:50.091Z,85
2022-12-01T06:54:51.947Z,84
2022-12-01T06:59:53.355Z,84
2022-12-01T07:04:55.045Z,84
2022-12-01T07:09:56.629Z,84
2022-12-01T07:14:58.207Z,84
2022-12-01T07:19:59.499Z,84
2022-12-01T07:25:01.381Z,84
2022-12-01T07:30:03.600Z,84
2022-12-01T07:35:05.665Z,84
2022-12-01T07:40:07.242Z,84
2022-12-01T07:45:08.610Z,84
2022-12-01T07:50:09.807Z,84
2022-12-01T07:55:11.020Z,84
2022-12-01T08:00:12.554Z,84
2022-12-01T08:05:14.570Z,83
2022-12-01T08:10:16.065Z,83
2022-12-01T08:15:18.264Z,84
2022-12-01T08:20:23.845Z,84
2022-12-01T08:25:21.748Z,83
2022-12-01T08:30:23.835Z,83
2022-12-01T08:35:25.342Z,82
2022-12-01T08:40:27.362Z,81
2022-12-01T08:45:29.440Z,81
2022-12-01T08:50:31.170Z,80
2022-12-01T08:55:32.634Z,78
2022-12-01T09:00:33.945Z,77
2022-12-01T09:05:35.685Z,77
2022-12-01T09:10:37.040Z,78
2022-12-01T09:15:38.763Z,78
2022-12-01T09:20:40.646Z,77
2022-12-01T09:25:42.371Z,76
2022-12-01T09:30:44.018Z,76
2022-12-01T09:35:46.029Z,76
2022-12-01T09:40:47.950Z,76
2022-12-01T09:55:52.028Z,77
2022-12-01T10:15:58.650Z,76
2022-12-01T10:20:59.881Z,76
2022-12-01T10:31:03.495Z,75
2022-12-01T10:36:05.609Z,76
2022-12-01T10:46:08.604Z,76
2022-12-01T10:51:10.288Z,76
2022-12-01T10:56:12.297Z,75
2022-12-01T11:01:14.515Z,75
2022-12-01T11:11:17.320Z,75
2022-12-01T11:16:18.814Z,76
2022-12-01T11:21:20.192Z,76
2022-12-01T11:26:22.279Z,76
2022-12-01T11:31:25.021Z,76
2022-12-01T11:36:25.725Z,76
2022-12-01T11:41:27.294Z,75
2022-12-01T11:46:29.031Z,75
2022-12-01T11:51:30.328Z,75
2022-12-01T11:56:38.288Z,75
2022-12-01T12:01:40.058Z,76
2022-12-01T12:06:41.642Z,76
2022-12-01T12:11:43.549Z,76
2022-12-01T12:16:45.444Z,76
2022-12-01T12:21:47.462Z,76
2022-12-01T12:26:48.758Z,75
2022-12-01T12:31:50.853Z,75
2022-12-01T12:36:52.573Z,75
2022-12-01T12:41:54.101Z,75
2022-12-01T12:46:56.288Z,76
2022-12-01T12:51:57.663Z,75
2022-12-01T12:56:59.161Z,76
2022-12-01T13:02:00.854Z,75
2022-12-01T13:07:02.756Z,75
2022-12-01T13:12:03.983Z,75
2022-12-01T13:17:06.171Z,76
2022-12-01T13:22:07.545Z,74
2022-12-01T13:27:09.128Z,75
2022-12-01T13:32:10.481Z,75
2022-12-01T13:37:12.028Z,74
2022-12-01T13:42:13.279Z,74
2022-12-01T13:47:14.973Z,74
2022-12-01T13:52:16.712Z,74
2022-12-01T13:57:18.739Z,74
2022-12-01T14:02:20.633Z,74
2022-12-01T14:07:22.192Z,74
2022-12-01T14:12:23.396Z,74
2022-12-01T14:17:25.451Z,74
2022-12-01T14:22:26.804Z,74
2022-12-01T14:27:28.822Z,75
2022-12-01T14:32:30.774Z,74
2022-12-01T14:37:32.814Z,74
2022-12-01T14:42:34.152Z,74
2022-12-01T14:47:35.825Z,74
2022-12-01T14:52:37.289Z,74
2022-12-01T14:57:38.601Z,75
2022-12-01T15:02:39.954Z,75
2022-12-01T15:07:41.505Z,75
2022-12-01T15:12:43.120Z,75
2022-12-01T15:17:45.215Z,76
2022-12-01T15:22:46.842Z,76
2022-12-01T15:27:48.894Z,76
2022-12-01T15:32:50.756Z,76
2022-12-01T15:37:52.357Z,76
2022-12-01T15:42:54.453Z,76
2022-12-01T15:47:55.865Z,76
2022-12-01T15:52:57.719Z,76
2022-12-01T15:57:59.891Z,76
2022-12-01T16:03:02.117Z,77
2022-12-01T16:08:12.916Z,76
2022-12-01T16:13:04.495Z,76
2022-12-01T16:18:06.653Z,77
2022-12-01T16:23:08.624Z,76
2022-12-01T16:28:10.188Z,77
2022-12-01T16:33:12.316Z,77
2022-12-01T16:38:14.170Z,77
2022-12-01T16:43:15.675Z,78
2022-12-01T16:48:17.570Z,78
2022-12-01T16:53:19.230Z,78
2022-12-01T16:58:21.219Z,78
2022-12-01T17:03:22.736Z,79
2022-12-01T17:08:24.770Z,78
2022-12-01T17:13:26.048Z,78
2022-12-01T17:18:28.182Z,78
2022-12-01T17:23:30.118Z,78
2022-12-01T17:28:32.208Z,78
2022-12-01T17:33:33.705Z,79
2022-12-01T17:38:35.746Z,79
2022-12-01T17:43:37.779Z,79
2022-12-01T17:48:39.518Z,79
2022-12-01T17:53:41.266Z,79
2022-12-01T17:58:42.746Z,79
2022-12-01T18:03:44.777Z,79
2022-12-01T18:08:46.690Z,79
2022-12-01T18:13:48.453Z,79
2022-12-01T18:18:50.413Z,79
2022-12-01T18:23:51.817Z,80
2022-12-01T18:28:53.545Z,80
2022-12-01T18:33:55.473Z,80
2022-12-01T18:38:56.625Z,81
2022-12-01T18:43:58.642Z,81
2022-12-01T18:49:00.334Z,81
2022-12-01T18:54:01.547Z,82
2022-12-01T18:59:03.645Z,82
2022-12-01T19:04:05.718Z,82
2022-12-01T19:09:06.924Z,82
2022-12-01T19:14:08.627Z,82
2022-12-01T19:19:09.921Z,82
2022-12-01T19:24:11.146Z,83
2022-12-01T19:29:12.623Z,83
2022-12-01T19:34:14.656Z,83
2022-12-01T19:39:16.504Z,83
2022-12-01T19:44:18.603Z,83
2022-12-01T19:49:20.481Z,83
2022-12-01T19:54:21.922Z,83
2022-12-01T19:59:23.727Z,83
2022-12-01T20:04:25.199Z,83
2022-12-01T20:09:27.254Z,83
2022-12-01T20:14:28.960Z,83
2022-12-01T20:19:30.965Z,83
2022-12-01T20:24:32.831Z,83
2022-12-01T20:29:33.959Z,83
2022-12-01T20:34:36.216Z,83
2022-12-01T20:39:37.519Z,84
2022-12-01T20:44:38.675Z,83
2022-12-01T20:49:40.547Z,84
2022-12-01T20:54:41.823Z,83
2022-12-01T20:59:43.952Z,84
2022-12-01T21:04:46.043Z,84
2022-12-01T21:09:47.571Z,84
2022-12-01T21:14:49.817Z,84
2022-12-01T21:19:51.758Z,84
2022-12-01T21:24:53.261Z,84
2022-12-01T21:29:54.471Z,84
2022-12-01T21:34:55.926Z,84
2022-12-01T21:39:58.001Z,84
2022-12-01T21:45:00.144Z,84
2022-12-01T21:50:01.644Z,84
2022-12-01T21:55:03.114Z,84
2022-12-01T22:00:04.370Z,84
2022-12-01T22:05:06.158Z,84
2022-12-01T22:10:09.211Z,84
2022-12-01T22:15:09.318Z,84
2022-12-01T22:20:11.066Z,84
2022-12-01T22:25:12.410Z,83
2022-12-01T22:30:14.284Z,83
2022-12-01T22:35:16.037Z,83
2022-12-01T22:40:17.368Z,84
2022-12-01T22:45:18.791Z,83
2022-12-01T22:50:20.948Z,83
2022-12-01T22:55:22.298Z,83
2022-12-01T23:15:28.359Z,84
2022-12-01T23:20:29.710Z,85
2022-12-01T23:25:31.699Z,85
2022-12-01T23:30:32.969Z,85
2022-12-01T23:35:34.812Z,85
2022-12-01T23:40:36.405Z,86
2022-12-01T23:45:38.358Z,86
2022-12-01T23:50:40.478Z,86
2022-12-01T23:55:41.901Z,86
